sensor_id;sensor_type;location;lat;lon;timestamp;temperature;humidity
66708;DHT22;53622;0.000;0.000;2024-01-30T00:02:13;19.80;52.00
66708;DHT22;53622;0.000;0.000;2024-01-30T00:04:42;19.80;52.00
66708;DHT22;53622;0.000;0.000;2024-01-30T00:07:11;19.80;52.00
66708;DHT22;53622;0.000;0.000;2024-01-30T00:09:40;19.80;52.00
66708;DHT22;53622;0.000;0.000;2024-01-30T00:12:09;19.80;52.00
66708;DHT22;53622;0.000;0.000;2024-01-30T00:14:38;19.80;52.00
66708;DHT22;53622;0.000;0.000;2024-01-30T00:17:08;19.80;52.00
66708;DHT22;53622;0.000;0.000;2024-01-30T00:19:36;19.80;52.10
66708;DHT22;53622;0.000;0.000;2024-01-30T00:22:05;19.80;52.10
66708;DHT22;53622;0.000;0.000;2024-01-30T00:24:35;19.70;52.00
66708;DHT22;53622;0.000;0.000;2024-01-30T00:27:04;19.70;52.00
66708;DHT22;53622;0.000;0.000;2024-01-30T00:29:32;19.70;52.00
66708;DHT22;53622;0.000;0.000;2024-01-30T00:32:01;19.70;52.00
66708;DHT22;53622;0.000;0.000;2024-01-30T00:34:31;19.70;52.00
66708;DHT22;53622;0.000;0.000;2024-01-30T00:37:00;19.70;52.00
66708;DHT22;53622;0.000;0.000;2024-01-30T00:39:29;19.70;52.00
66708;DHT22;53622;0.000;0.000;2024-01-30T00:41:58;19.70;52.00
66708;DHT22;53622;0.000;0.000;2024-01-30T00:44:26;19.70;52.10
66708;DHT22;53622;0.000;0.000;2024-01-30T00:46:55;19.70;52.10
66708;DHT22;53622;0.000;0.000;2024-01-30T00:49:24;19.70;52.00
66708;DHT22;53622;0.000;0.000;2024-01-30T00:51:54;19.70;52.00
66708;DHT22;53622;0.000;0.000;2024-01-30T00:54:23;19.70;52.00
66708;DHT22;53622;0.000;0.000;2024-01-30T00:56:51;19.70;52.00
66708;DHT22;53622;0.000;0.000;2024-01-30T00:59:20;19.70;52.00
66708;DHT22;53622;0.000;0.000;2024-01-30T01:01:49;19.70;52.00
66708;DHT22;53622;0.000;0.000;2024-01-30T01:04:17;19.70;52.10
66708;DHT22;53622;0.000;0.000;2024-01-30T01:06:48;19.70;52.10
66708;DHT22;53622;0.000;0.000;2024-01-30T01:09:19;19.60;52.00
66708;DHT22;53622;0.000;0.000;2024-01-30T01:11:47;19.60;52.00
66708;DHT22;53622;0.000;0.000;2024-01-30T01:14:16;19.60;52.10
66708;DHT22;53622;0.000;0.000;2024-01-30T01:16:45;19.60;52.10
66708;DHT22;53622;0.000;0.000;2024-01-30T01:19:14;19.60;52.10
66708;DHT22;53622;0.000;0.000;2024-01-30T01:21:43;19.60;52.10
66708;DHT22;53622;0.000;0.000;2024-01-30T01:24:11;19.60;52.10
66708;DHT22;53622;0.000;0.000;2024-01-30T01:26:41;19.60;52.10
66708;DHT22;53622;0.000;0.000;2024-01-30T01:29:10;19.60;52.10
66708;DHT22;53622;0.000;0.000;2024-01-30T01:31:39;19.60;52.10
66708;DHT22;53622;0.000;0.000;2024-01-30T01:34:11;19.60;52.10
66708;DHT22;53622;0.000;0.000;2024-01-30T01:36:40;19.60;52.10
66708;DHT22;53622;0.000;0.000;2024-01-30T01:39:09;19.60;52.10
66708;DHT22;53622;0.000;0.000;2024-01-30T01:41:38;19.50;52.10
66708;DHT22;53622;0.000;0.000;2024-01-30T01:44:08;19.50;52.10
66708;DHT22;53622;0.000;0.000;2024-01-30T01:46:37;19.50;52.10
66708;DHT22;53622;0.000;0.000;2024-01-30T01:49:06;19.50;52.10
66708;DHT22;53622;0.000;0.000;2024-01-30T01:51:36;19.50;52.10
66708;DHT22;53622;0.000;0.000;2024-01-30T01:54:05;19.50;52.10
66708;DHT22;53622;0.000;0.000;2024-01-30T01:56:35;19.50;52.10
66708;DHT22;53622;0.000;0.000;2024-01-30T01:59:06;19.50;52.10
66708;DHT22;53622;0.000;0.000;2024-01-30T02:01:37;19.50;52.10
66708;DHT22;53622;0.000;0.000;2024-01-30T02:04:08;19.50;52.20
66708;DHT22;53622;0.000;0.000;2024-01-30T02:06:37;19.50;52.10
66708;DHT22;53622;0.000;0.000;2024-01-30T02:09:07;19.50;52.10
66708;DHT22;53622;0.000;0.000;2024-01-30T02:11:36;19.50;52.20
66708;DHT22;53622;0.000;0.000;2024-01-30T02:14:05;19.50;52.20
66708;DHT22;53622;0.000;0.000;2024-01-30T02:16:34;19.50;52.20
66708;DHT22;53622;0.000;0.000;2024-01-30T02:19:05;19.50;52.20
66708;DHT22;53622;0.000;0.000;2024-01-30T02:21:36;19.50;52.20
66708;DHT22;53622;0.000;0.000;2024-01-30T02:24:06;19.50;52.20
66708;DHT22;53622;0.000;0.000;2024-01-30T02:26:34;19.50;52.20
66708;DHT22;53622;0.000;0.000;2024-01-30T02:29:03;19.40;52.10
66708;DHT22;53622;0.000;0.000;2024-01-30T02:31:32;19.40;52.20
66708;DHT22;53622;0.000;0.000;2024-01-30T02:34:00;19.40;52.20
66708;DHT22;53622;0.000;0.000;2024-01-30T02:36:29;19.40;52.20
66708;DHT22;53622;0.000;0.000;2024-01-30T02:38:59;19.40;52.20
66708;DHT22;53622;0.000;0.000;2024-01-30T02:41:28;19.40;52.20
66708;DHT22;53622;0.000;0.000;2024-01-30T02:43:56;19.40;52.20
66708;DHT22;53622;0.000;0.000;2024-01-30T02:46:25;19.40;52.20
66708;DHT22;53622;0.000;0.000;2024-01-30T02:48:54;19.40;52.20
66708;DHT22;53622;0.000;0.000;2024-01-30T02:51:23;19.40;52.20
66708;DHT22;53622;0.000;0.000;2024-01-30T02:53:51;19.40;52.20
66708;DHT22;53622;0.000;0.000;2024-01-30T02:56:21;19.40;52.20
66708;DHT22;53622;0.000;0.000;2024-01-30T02:58:50;19.40;52.20
66708;DHT22;53622;0.000;0.000;2024-01-30T03:01:19;19.40;52.20
66708;DHT22;53622;0.000;0.000;2024-01-30T03:03:47;19.40;52.20
66708;DHT22;53622;0.000;0.000;2024-01-30T03:06:16;19.40;52.20
66708;DHT22;53622;0.000;0.000;2024-01-30T03:08:47;19.40;52.30
66708;DHT22;53622;0.000;0.000;2024-01-30T03:11:16;19.40;52.30
66708;DHT22;53622;0.000;0.000;2024-01-30T03:13:46;19.40;52.30
66708;DHT22;53622;0.000;0.000;2024-01-30T03:16:14;19.40;52.30
66708;DHT22;53622;0.000;0.000;2024-01-30T03:18:43;19.30;52.20
66708;DHT22;53622;0.000;0.000;2024-01-30T03:21:12;19.30;52.20
66708;DHT22;53622;0.000;0.000;2024-01-30T03:23:41;19.40;52.30
66708;DHT22;53622;0.000;0.000;2024-01-30T03:26:09;19.30;52.20
66708;DHT22;53622;0.000;0.000;2024-01-30T03:28:40;19.30;52.20
66708;DHT22;53622;0.000;0.000;2024-01-30T03:31:10;19.30;52.30
66708;DHT22;53622;0.000;0.000;2024-01-30T03:33:38;19.30;52.30
66708;DHT22;53622;0.000;0.000;2024-01-30T03:36:08;19.30;52.30
66708;DHT22;53622;0.000;0.000;2024-01-30T03:38:37;19.30;52.30
66708;DHT22;53622;0.000;0.000;2024-01-30T03:41:07;19.30;52.30
66708;DHT22;53622;0.000;0.000;2024-01-30T03:43:37;19.30;52.30
66708;DHT22;53622;0.000;0.000;2024-01-30T03:46:05;19.30;52.30
66708;DHT22;53622;0.000;0.000;2024-01-30T03:48:36;19.30;52.40
66708;DHT22;53622;0.000;0.000;2024-01-30T03:51:05;19.30;52.40
66708;DHT22;53622;0.000;0.000;2024-01-30T03:53:34;19.30;52.30
66708;DHT22;53622;0.000;0.000;2024-01-30T03:56:02;19.30;52.30
66708;DHT22;53622;0.000;0.000;2024-01-30T03:58:31;19.30;52.30
66708;DHT22;53622;0.000;0.000;2024-01-30T04:01:00;19.20;52.30
66708;DHT22;53622;0.000;0.000;2024-01-30T04:03:29;19.30;52.30
66708;DHT22;53622;0.000;0.000;2024-01-30T04:05:59;19.20;52.30
66708;DHT22;53622;0.000;0.000;2024-01-30T04:08:28;19.30;52.30
66708;DHT22;53622;0.000;0.000;2024-01-30T04:10:56;19.20;52.30
66708;DHT22;53622;0.000;0.000;2024-01-30T04:13:25;19.30;52.40
66708;DHT22;53622;0.000;0.000;2024-01-30T04:15:54;19.30;52.30
66708;DHT22;53622;0.000;0.000;2024-01-30T04:18:23;19.30;52.30
66708;DHT22;53622;0.000;0.000;2024-01-30T04:20:52;19.20;52.30
66708;DHT22;53622;0.000;0.000;2024-01-30T04:23:23;19.20;52.30
66708;DHT22;53622;0.000;0.000;2024-01-30T04:25:51;19.20;52.30
66708;DHT22;53622;0.000;0.000;2024-01-30T04:28:20;19.20;52.30
66708;DHT22;53622;0.000;0.000;2024-01-30T04:30:49;19.20;52.40
66708;DHT22;53622;0.000;0.000;2024-01-30T04:33:18;19.20;52.30
66708;DHT22;53622;0.000;0.000;2024-01-30T04:35:47;19.20;52.30
66708;DHT22;53622;0.000;0.000;2024-01-30T04:38:15;19.20;52.30
66708;DHT22;53622;0.000;0.000;2024-01-30T04:40:45;19.20;52.30
66708;DHT22;53622;0.000;0.000;2024-01-30T04:43:14;19.20;52.40
66708;DHT22;53622;0.000;0.000;2024-01-30T04:45:43;19.20;52.40
66708;DHT22;53622;0.000;0.000;2024-01-30T04:48:12;19.20;52.40
66708;DHT22;53622;0.000;0.000;2024-01-30T04:50:41;19.20;52.40
66708;DHT22;53622;0.000;0.000;2024-01-30T04:53:09;19.20;52.40
66708;DHT22;53622;0.000;0.000;2024-01-30T04:55:38;19.20;52.40
66708;DHT22;53622;0.000;0.000;2024-01-30T04:58:08;19.20;52.40
66708;DHT22;53622;0.000;0.000;2024-01-30T05:00:37;19.20;52.40
66708;DHT22;53622;0.000;0.000;2024-01-30T05:03:06;19.20;52.30
66708;DHT22;53622;0.000;0.000;2024-01-30T05:05:35;19.20;52.30
66708;DHT22;53622;0.000;0.000;2024-01-30T05:08:04;19.20;52.30
66708;DHT22;53622;0.000;0.000;2024-01-30T05:10:33;19.20;52.30
66708;DHT22;53622;0.000;0.000;2024-01-30T05:13:02;19.20;52.30
66708;DHT22;53622;0.000;0.000;2024-01-30T05:15:32;19.20;52.30
66708;DHT22;53622;0.000;0.000;2024-01-30T05:18:01;19.20;52.30
66708;DHT22;53622;0.000;0.000;2024-01-30T05:20:30;19.20;52.40
66708;DHT22;53622;0.000;0.000;2024-01-30T05:22:59;19.20;52.60
66708;DHT22;53622;0.000;0.000;2024-01-30T05:25:27;19.20;52.60
66708;DHT22;53622;0.000;0.000;2024-01-30T05:27:56;19.30;52.70
66708;DHT22;53622;0.000;0.000;2024-01-30T05:30:25;19.30;52.70
66708;DHT22;53622;0.000;0.000;2024-01-30T05:32:55;19.40;52.70
66708;DHT22;53622;0.000;0.000;2024-01-30T05:35:24;19.40;52.70
66708;DHT22;53622;0.000;0.000;2024-01-30T05:37:53;19.50;52.70
66708;DHT22;53622;0.000;0.000;2024-01-30T05:40:21;19.50;52.70
66708;DHT22;53622;0.000;0.000;2024-01-30T05:42:51;19.50;52.70
66708;DHT22;53622;0.000;0.000;2024-01-30T05:45:19;19.50;52.60
66708;DHT22;53622;0.000;0.000;2024-01-30T05:47:50;19.60;52.70
66708;DHT22;53622;0.000;0.000;2024-01-30T05:50:20;19.70;52.70
66708;DHT22;53622;0.000;0.000;2024-01-30T05:52:50;19.70;52.50
66708;DHT22;53622;0.000;0.000;2024-01-30T05:55:19;19.80;52.60
66708;DHT22;53622;0.000;0.000;2024-01-30T05:57:48;19.80;52.60
66708;DHT22;53622;0.000;0.000;2024-01-30T06:00:17;19.90;52.70
66708;DHT22;53622;0.000;0.000;2024-01-30T06:02:46;19.90;52.60
66708;DHT22;53622;0.000;0.000;2024-01-30T06:05:15;19.90;52.60
66708;DHT22;53622;0.000;0.000;2024-01-30T06:07:45;19.90;52.60
66708;DHT22;53622;0.000;0.000;2024-01-30T06:10:14;19.90;52.50
66708;DHT22;53622;0.000;0.000;2024-01-30T06:12:43;20.00;52.60
66708;DHT22;53622;0.000;0.000;2024-01-30T06:15:13;20.00;52.60
66708;DHT22;53622;0.000;0.000;2024-01-30T06:17:42;20.00;52.50
66708;DHT22;53622;0.000;0.000;2024-01-30T06:20:10;20.00;52.50
66708;DHT22;53622;0.000;0.000;2024-01-30T06:22:39;20.00;52.40
66708;DHT22;53622;0.000;0.000;2024-01-30T06:25:09;20.10;52.40
66708;DHT22;53622;0.000;0.000;2024-01-30T06:27:39;20.10;52.30
66708;DHT22;53622;0.000;0.000;2024-01-30T06:30:09;20.10;52.30
66708;DHT22;53622;0.000;0.000;2024-01-30T06:32:38;20.10;52.20
66708;DHT22;53622;0.000;0.000;2024-01-30T06:35:07;20.10;52.30
66708;DHT22;53622;0.000;0.000;2024-01-30T06:37:37;20.10;52.30
66708;DHT22;53622;0.000;0.000;2024-01-30T06:40:09;20.10;52.30
66708;DHT22;53622;0.000;0.000;2024-01-30T06:42:38;20.20;52.10
66708;DHT22;53622;0.000;0.000;2024-01-30T06:45:07;20.20;52.10
66708;DHT22;53622;0.000;0.000;2024-01-30T06:47:36;20.20;52.10
66708;DHT22;53622;0.000;0.000;2024-01-30T06:50:06;20.20;52.20
66708;DHT22;53622;0.000;0.000;2024-01-30T06:52:35;20.20;52.20
66708;DHT22;53622;0.000;0.000;2024-01-30T06:55:04;20.20;52.10
66708;DHT22;53622;0.000;0.000;2024-01-30T06:57:34;20.10;52.00
66708;DHT22;53622;0.000;0.000;2024-01-30T07:00:03;20.10;52.10
66708;DHT22;53622;0.000;0.000;2024-01-30T07:02:32;20.00;52.00
66708;DHT22;53622;0.000;0.000;2024-01-30T07:05:01;20.00;52.00
66708;DHT22;53622;0.000;0.000;2024-01-30T07:07:30;20.00;52.00
66708;DHT22;53622;0.000;0.000;2024-01-30T07:09:59;20.00;52.00
66708;DHT22;53622;0.000;0.000;2024-01-30T07:12:27;20.00;52.00
66708;DHT22;53622;0.000;0.000;2024-01-30T07:14:58;20.00;52.00
66708;DHT22;53622;0.000;0.000;2024-01-30T07:17:27;20.00;52.00
66708;DHT22;53622;0.000;0.000;2024-01-30T07:19:55;19.90;52.00
66708;DHT22;53622;0.000;0.000;2024-01-30T07:22:24;19.90;52.00
66708;DHT22;53622;0.000;0.000;2024-01-30T07:24:53;19.90;52.00
66708;DHT22;53622;0.000;0.000;2024-01-30T07:27:22;19.90;51.90
66708;DHT22;53622;0.000;0.000;2024-01-30T07:29:51;19.90;52.00
66708;DHT22;53622;0.000;0.000;2024-01-30T07:32:21;19.80;51.90
66708;DHT22;53622;0.000;0.000;2024-01-30T07:34:49;19.80;52.00
66708;DHT22;53622;0.000;0.000;2024-01-30T07:37:33;19.80;52.00
66708;DHT22;53622;0.000;0.000;2024-01-30T07:40:03;19.70;52.00
66708;DHT22;53622;0.000;0.000;2024-01-30T07:42:32;19.70;51.90
66708;DHT22;53622;0.000;0.000;2024-01-30T07:45:01;19.70;51.90
66708;DHT22;53622;0.000;0.000;2024-01-30T07:47:31;19.70;51.90
66708;DHT22;53622;0.000;0.000;2024-01-30T07:50:00;19.70;51.90
66708;DHT22;53622;0.000;0.000;2024-01-30T07:52:29;19.70;51.90
66708;DHT22;53622;0.000;0.000;2024-01-30T07:54:58;19.70;51.90
66708;DHT22;53622;0.000;0.000;2024-01-30T07:57:27;19.70;51.90
66708;DHT22;53622;0.000;0.000;2024-01-30T07:59:55;19.60;51.90
66708;DHT22;53622;0.000;0.000;2024-01-30T08:02:24;19.60;51.90
66708;DHT22;53622;0.000;0.000;2024-01-30T08:04:54;19.60;51.80
66708;DHT22;53622;0.000;0.000;2024-01-30T08:07:23;19.60;51.90
66708;DHT22;53622;0.000;0.000;2024-01-30T08:09:52;19.60;51.90
66708;DHT22;53622;0.000;0.000;2024-01-30T08:12:21;19.60;51.90
66708;DHT22;53622;0.000;0.000;2024-01-30T08:14:49;19.50;51.80
66708;DHT22;53622;0.000;0.000;2024-01-30T08:17:18;19.50;51.80
66708;DHT22;53622;0.000;0.000;2024-01-30T08:19:47;19.50;51.80
66708;DHT22;53622;0.000;0.000;2024-01-30T08:22:17;19.50;51.80
66708;DHT22;53622;0.000;0.000;2024-01-30T08:24:46;19.50;51.70
66708;DHT22;53622;0.000;0.000;2024-01-30T08:27:15;19.50;51.70
66708;DHT22;53622;0.000;0.000;2024-01-30T08:29:43;19.50;51.70
66708;DHT22;53622;0.000;0.000;2024-01-30T08:32:12;19.50;51.70
66708;DHT22;53622;0.000;0.000;2024-01-30T08:34:41;19.50;51.70
66708;DHT22;53622;0.000;0.000;2024-01-30T08:37:10;19.50;51.70
66708;DHT22;53622;0.000;0.000;2024-01-30T08:39:40;19.50;51.70
66708;DHT22;53622;0.000;0.000;2024-01-30T08:42:09;19.50;51.70
66708;DHT22;53622;0.000;0.000;2024-01-30T08:44:37;19.50;51.70
66708;DHT22;53622;0.000;0.000;2024-01-30T08:47:06;19.50;51.70
66708;DHT22;53622;0.000;0.000;2024-01-30T08:49:35;19.50;51.60
66708;DHT22;53622;0.000;0.000;2024-01-30T08:52:04;19.50;51.60
66708;DHT22;53622;0.000;0.000;2024-01-30T08:54:34;19.40;51.50
66708;DHT22;53622;0.000;0.000;2024-01-30T08:57:05;19.40;51.60
66708;DHT22;53622;0.000;0.000;2024-01-30T08:59:33;19.40;51.60
66708;DHT22;53622;0.000;0.000;2024-01-30T09:02:02;19.40;51.60
66708;DHT22;53622;0.000;0.000;2024-01-30T09:04:39;19.40;51.50
66708;DHT22;53622;0.000;0.000;2024-01-30T09:07:09;19.40;51.60
66708;DHT22;53622;0.000;0.000;2024-01-30T09:09:38;19.40;51.60
66708;DHT22;53622;0.000;0.000;2024-01-30T09:12:09;19.40;51.50
66708;DHT22;53622;0.000;0.000;2024-01-30T09:14:40;19.40;51.50
66708;DHT22;53622;0.000;0.000;2024-01-30T09:17:09;19.40;51.50
66708;DHT22;53622;0.000;0.000;2024-01-30T09:19:36;19.40;51.50
66708;DHT22;53622;0.000;0.000;2024-01-30T09:22:05;19.40;51.50
66708;DHT22;53622;0.000;0.000;2024-01-30T09:24:35;19.40;51.50
66708;DHT22;53622;0.000;0.000;2024-01-30T09:27:04;19.40;51.50
66708;DHT22;53622;0.000;0.000;2024-01-30T09:29:34;19.40;51.50
66708;DHT22;53622;0.000;0.000;2024-01-30T09:32:05;19.40;51.50
66708;DHT22;53622;0.000;0.000;2024-01-30T09:34:34;19.40;51.50
66708;DHT22;53622;0.000;0.000;2024-01-30T09:37:03;19.40;51.50
66708;DHT22;53622;0.000;0.000;2024-01-30T09:39:31;19.40;51.50
66708;DHT22;53622;0.000;0.000;2024-01-30T09:42:05;19.40;51.50
66708;DHT22;53622;0.000;0.000;2024-01-30T09:44:35;19.40;51.50
66708;DHT22;53622;0.000;0.000;2024-01-30T09:47:06;19.40;51.50
66708;DHT22;53622;0.000;0.000;2024-01-30T09:49:35;19.30;51.40
66708;DHT22;53622;0.000;0.000;2024-01-30T09:52:05;19.30;51.50
66708;DHT22;53622;0.000;0.000;2024-01-30T09:54:35;19.30;51.50
66708;DHT22;53622;0.000;0.000;2024-01-30T09:57:05;19.30;51.50
66708;DHT22;53622;0.000;0.000;2024-01-30T09:59:35;19.30;51.50
66708;DHT22;53622;0.000;0.000;2024-01-30T10:02:04;19.30;51.50
66708;DHT22;53622;0.000;0.000;2024-01-30T10:04:33;19.30;51.50
66708;DHT22;53622;0.000;0.000;2024-01-30T10:07:02;19.30;51.40
66708;DHT22;53622;0.000;0.000;2024-01-30T10:09:32;19.30;51.50
66708;DHT22;53622;0.000;0.000;2024-01-30T10:12:02;19.30;51.50
66708;DHT22;53622;0.000;0.000;2024-01-30T10:14:32;19.30;51.40
66708;DHT22;53622;0.000;0.000;2024-01-30T10:17:03;19.30;51.40
66708;DHT22;53622;0.000;0.000;2024-01-30T10:19:44;19.30;51.40
66708;DHT22;53622;0.000;0.000;2024-01-30T10:22:12;19.30;51.40
66708;DHT22;53622;0.000;0.000;2024-01-30T10:24:41;19.30;51.40
66708;DHT22;53622;0.000;0.000;2024-01-30T10:27:10;19.30;51.40
66708;DHT22;53622;0.000;0.000;2024-01-30T10:29:39;19.30;51.50
66708;DHT22;53622;0.000;0.000;2024-01-30T10:32:09;19.30;51.40
66708;DHT22;53622;0.000;0.000;2024-01-30T10:34:38;19.30;51.40
66708;DHT22;53622;0.000;0.000;2024-01-30T10:37:08;19.30;51.50
66708;DHT22;53622;0.000;0.000;2024-01-30T10:39:41;19.30;51.40
66708;DHT22;53622;0.000;0.000;2024-01-30T10:42:11;19.30;51.40
66708;DHT22;53622;0.000;0.000;2024-01-30T10:44:47;19.30;51.50
66708;DHT22;53622;0.000;0.000;2024-01-30T10:47:24;19.20;51.40
66708;DHT22;53622;0.000;0.000;2024-01-30T10:49:54;19.20;51.50
66708;DHT22;53622;0.000;0.000;2024-01-30T10:52:24;19.20;51.50
66708;DHT22;53622;0.000;0.000;2024-01-30T10:54:55;19.20;51.50
66708;DHT22;53622;0.000;0.000;2024-01-30T10:57:25;19.30;51.50
66708;DHT22;53622;0.000;0.000;2024-01-30T10:59:57;19.30;51.50
66708;DHT22;53622;0.000;0.000;2024-01-30T11:02:27;19.20;51.50
66708;DHT22;53622;0.000;0.000;2024-01-30T11:04:58;19.20;51.50
66708;DHT22;53622;0.000;0.000;2024-01-30T11:07:29;19.20;51.40
66708;DHT22;53622;0.000;0.000;2024-01-30T11:10:02;19.20;51.40
66708;DHT22;53622;0.000;0.000;2024-01-30T11:12:33;19.20;51.50
66708;DHT22;53622;0.000;0.000;2024-01-30T11:15:03;19.20;51.40
66708;DHT22;53622;0.000;0.000;2024-01-30T11:17:50;19.20;51.40
66708;DHT22;53622;0.000;0.000;2024-01-30T11:20:21;19.20;51.40
66708;DHT22;53622;0.000;0.000;2024-01-30T11:22:51;19.20;51.40
66708;DHT22;53622;0.000;0.000;2024-01-30T11:25:21;19.20;51.50
66708;DHT22;53622;0.000;0.000;2024-01-30T11:27:52;19.20;51.50
66708;DHT22;53622;0.000;0.000;2024-01-30T11:30:23;19.20;51.50
66708;DHT22;53622;0.000;0.000;2024-01-30T11:33:00;19.20;51.40
66708;DHT22;53622;0.000;0.000;2024-01-30T11:35:32;19.20;51.40
66708;DHT22;53622;0.000;0.000;2024-01-30T11:38:02;19.20;51.40
66708;DHT22;53622;0.000;0.000;2024-01-30T11:40:32;19.20;51.40
66708;DHT22;53622;0.000;0.000;2024-01-30T11:43:03;19.20;51.40
66708;DHT22;53622;0.000;0.000;2024-01-30T11:45:33;19.20;51.40
66708;DHT22;53622;0.000;0.000;2024-01-30T11:48:04;19.20;51.50
66708;DHT22;53622;0.000;0.000;2024-01-30T11:50:35;19.20;51.40
66708;DHT22;53622;0.000;0.000;2024-01-30T11:53:06;19.20;51.40
66708;DHT22;53622;0.000;0.000;2024-01-30T11:55:35;19.20;51.40
66708;DHT22;53622;0.000;0.000;2024-01-30T11:58:05;19.20;51.40
66708;DHT22;53622;0.000;0.000;2024-01-30T12:00:34;19.20;51.40
66708;DHT22;53622;0.000;0.000;2024-01-30T12:03:05;19.20;51.40
66708;DHT22;53622;0.000;0.000;2024-01-30T12:05:34;19.20;51.40
66708;DHT22;53622;0.000;0.000;2024-01-30T12:08:04;19.20;51.40
66708;DHT22;53622;0.000;0.000;2024-01-30T12:10:35;19.20;51.40
66708;DHT22;53622;0.000;0.000;2024-01-30T12:13:04;19.20;52.10
66708;DHT22;53622;0.000;0.000;2024-01-30T12:15:33;19.20;51.40
66708;DHT22;53622;0.000;0.000;2024-01-30T12:18:06;19.20;51.40
66708;DHT22;53622;0.000;0.000;2024-01-30T12:20:35;19.20;51.40
66708;DHT22;53622;0.000;0.000;2024-01-30T12:23:04;19.20;51.40
66708;DHT22;53622;0.000;0.000;2024-01-30T12:25:33;19.20;51.40
66708;DHT22;53622;0.000;0.000;2024-01-30T12:28:03;19.20;51.40
66708;DHT22;53622;0.000;0.000;2024-01-30T12:30:32;19.20;51.40
66708;DHT22;53622;0.000;0.000;2024-01-30T12:33:03;19.20;51.40
66708;DHT22;53622;0.000;0.000;2024-01-30T12:35:36;19.20;51.40
66708;DHT22;53622;0.000;0.000;2024-01-30T12:38:15;19.20;51.40
66708;DHT22;53622;0.000;0.000;2024-01-30T12:40:44;19.20;51.40
66708;DHT22;53622;0.000;0.000;2024-01-30T12:43:14;19.20;51.40
66708;DHT22;53622;0.000;0.000;2024-01-30T12:45:58;19.20;51.40
66708;DHT22;53622;0.000;0.000;2024-01-30T12:48:28;19.20;51.40
66708;DHT22;53622;0.000;0.000;2024-01-30T12:50:59;19.20;51.40
66708;DHT22;53622;0.000;0.000;2024-01-30T12:53:27;19.20;51.40
66708;DHT22;53622;0.000;0.000;2024-01-30T12:55:56;19.20;51.40
66708;DHT22;53622;0.000;0.000;2024-01-30T12:58:25;19.20;51.40
66708;DHT22;53622;0.000;0.000;2024-01-30T13:00:54;19.20;51.40
66708;DHT22;53622;0.000;0.000;2024-01-30T13:03:23;19.20;51.40
66708;DHT22;53622;0.000;0.000;2024-01-30T13:05:52;19.20;51.40
66708;DHT22;53622;0.000;0.000;2024-01-30T13:08:22;19.30;51.40
66708;DHT22;53622;0.000;0.000;2024-01-30T13:10:51;19.30;51.40
66708;DHT22;53622;0.000;0.000;2024-01-30T13:13:20;19.30;51.40
66708;DHT22;53622;0.000;0.000;2024-01-30T13:15:49;19.30;51.40
66708;DHT22;53622;0.000;0.000;2024-01-30T13:18:17;19.30;51.40
66708;DHT22;53622;0.000;0.000;2024-01-30T13:20:47;19.30;52.00
66708;DHT22;53622;0.000;0.000;2024-01-30T13:23:15;19.30;51.40
66708;DHT22;53622;0.000;0.000;2024-01-30T13:25:45;19.20;51.40
66708;DHT22;53622;0.000;0.000;2024-01-30T13:28:14;19.20;51.40
66708;DHT22;53622;0.000;0.000;2024-01-30T13:30:43;19.30;52.00
66708;DHT22;53622;0.000;0.000;2024-01-30T13:33:12;19.30;51.40
66708;DHT22;53622;0.000;0.000;2024-01-30T13:35:41;19.30;51.40
66708;DHT22;53622;0.000;0.000;2024-01-30T13:38:10;19.20;51.40
66708;DHT22;53622;0.000;0.000;2024-01-30T13:40:38;19.20;51.40
66708;DHT22;53622;0.000;0.000;2024-01-30T13:43:08;19.20;51.40
66708;DHT22;53622;0.000;0.000;2024-01-30T13:45:37;19.20;51.50
66708;DHT22;53622;0.000;0.000;2024-01-30T13:48:06;19.20;51.60
66708;DHT22;53622;0.000;0.000;2024-01-30T13:50:35;19.20;51.50
66708;DHT22;53622;0.000;0.000;2024-01-30T13:53:04;19.20;51.50
66708;DHT22;53622;0.000;0.000;2024-01-30T13:55:33;19.20;51.50
66708;DHT22;53622;0.000;0.000;2024-01-30T13:58:02;19.20;51.60
66708;DHT22;53622;0.000;0.000;2024-01-30T14:00:33;19.20;51.60
66708;DHT22;53622;0.000;0.000;2024-01-30T14:03:02;19.20;51.60
66708;DHT22;53622;0.000;0.000;2024-01-30T14:05:31;19.20;51.60
66708;DHT22;53622;0.000;0.000;2024-01-30T14:08:00;19.20;51.60
66708;DHT22;53622;0.000;0.000;2024-01-30T14:10:29;19.20;51.60
66708;DHT22;53622;0.000;0.000;2024-01-30T14:12:58;19.20;51.60
66708;DHT22;53622;0.000;0.000;2024-01-30T14:15:26;19.10;51.60
66708;DHT22;53622;0.000;0.000;2024-01-30T14:17:57;19.10;51.60
66708;DHT22;53622;0.000;0.000;2024-01-30T14:20:27;19.10;51.70
66708;DHT22;53622;0.000;0.000;2024-01-30T14:22:56;19.10;51.70
66708;DHT22;53622;0.000;0.000;2024-01-30T14:25:24;19.10;51.70
66708;DHT22;53622;0.000;0.000;2024-01-30T14:27:53;19.10;51.70
66708;DHT22;53622;0.000;0.000;2024-01-30T14:30:22;19.10;51.80
66708;DHT22;53622;0.000;0.000;2024-01-30T14:32:51;19.10;51.80
66708;DHT22;53622;0.000;0.000;2024-01-30T14:35:21;19.10;51.80
66708;DHT22;53622;0.000;0.000;2024-01-30T14:37:50;19.10;51.80
66708;DHT22;53622;0.000;0.000;2024-01-30T14:40:19;19.10;51.80
66708;DHT22;53622;0.000;0.000;2024-01-30T14:42:48;19.10;51.80
66708;DHT22;53622;0.000;0.000;2024-01-30T14:45:17;19.10;51.80
66708;DHT22;53622;0.000;0.000;2024-01-30T14:47:46;19.10;51.80
66708;DHT22;53622;0.000;0.000;2024-01-30T14:50:15;19.10;51.80
66708;DHT22;53622;0.000;0.000;2024-01-30T14:52:46;19.10;51.80
66708;DHT22;53622;0.000;0.000;2024-01-30T14:55:14;19.10;51.90
66708;DHT22;53622;0.000;0.000;2024-01-30T14:57:44;19.10;52.10
66708;DHT22;53622;0.000;0.000;2024-01-30T15:00:14;19.10;51.90
66708;DHT22;53622;0.000;0.000;2024-01-30T15:02:44;19.10;51.80
66708;DHT22;53622;0.000;0.000;2024-01-30T15:05:14;19.10;51.90
66708;DHT22;53622;0.000;0.000;2024-01-30T15:07:43;19.10;51.80
66708;DHT22;53622;0.000;0.000;2024-01-30T15:10:14;19.00;52.40
66708;DHT22;53622;0.000;0.000;2024-01-30T15:12:42;19.10;51.80
66708;DHT22;53622;0.000;0.000;2024-01-30T15:15:11;19.10;52.50
66708;DHT22;53622;0.000;0.000;2024-01-30T15:17:40;19.10;51.90
66708;DHT22;53622;0.000;0.000;2024-01-30T15:20:09;19.00;51.90
66708;DHT22;53622;0.000;0.000;2024-01-30T15:22:38;19.00;51.90
66708;DHT22;53622;0.000;0.000;2024-01-30T15:25:08;19.00;51.80
66708;DHT22;53622;0.000;0.000;2024-01-30T15:27:38;19.10;51.90
66708;DHT22;53622;0.000;0.000;2024-01-30T15:30:08;19.00;52.40
66708;DHT22;53622;0.000;0.000;2024-01-30T15:32:39;19.00;51.90
66708;DHT22;53622;0.000;0.000;2024-01-30T15:35:08;19.00;51.90
66708;DHT22;53622;0.000;0.000;2024-01-30T15:37:37;19.00;51.90
66708;DHT22;53622;0.000;0.000;2024-01-30T15:40:07;19.00;51.90
66708;DHT22;53622;0.000;0.000;2024-01-30T15:42:37;19.00;51.90
66708;DHT22;53622;0.000;0.000;2024-01-30T15:45:06;19.00;51.90
66708;DHT22;53622;0.000;0.000;2024-01-30T15:47:35;19.00;51.90
66708;DHT22;53622;0.000;0.000;2024-01-30T15:50:05;19.00;51.90
66708;DHT22;53622;0.000;0.000;2024-01-30T15:52:34;19.00;51.90
66708;DHT22;53622;0.000;0.000;2024-01-30T15:55:03;19.00;51.90
66708;DHT22;53622;0.000;0.000;2024-01-30T15:57:32;19.00;51.90
66708;DHT22;53622;0.000;0.000;2024-01-30T16:00:02;19.00;52.00